sensor_id;sensor_type;location;lat;lon;timestamp;P1;durP1;ratioP1;P2;durP2;ratioP2
20844;SDS011;10583;49.084;8.646;2023-06-10T00:00:08;6.90;;;6.90;;
20844;SDS011;10583;49.084;8.646;2023-06-10T00:02:38;7.20;;;7.20;;
20844;SDS011;10583;49.084;8.646;2023-06-10T00:05:08;6.77;;;6.77;;
20844;SDS011;10583;49.084;8.646;2023-06-10T00:07:37;6.43;;;6.43;;
20844;SDS011;10583;49.084;8.646;2023-06-10T00:10:06;6.87;;;6.87;;
20844;SDS011;10583;49.084;8.646;2023-06-10T00:12:35;6.97;;;6.97;;
20844;SDS011;10583;49.084;8.646;2023-06-10T00:15:05;7.07;;;7.07;;
20844;SDS011;10583;49.084;8.646;2023-06-10T00:17:33;6.57;;;6.57;;
20844;SDS011;10583;49.084;8.646;2023-06-10T00:20:04;6.83;;;6.83;;
20844;SDS011;10583;49.084;8.646;2023-06-10T00:22:34;6.90;;;6.90;;
20844;SDS011;10583;49.084;8.646;2023-06-10T00:25:01;6.70;;;6.70;;
20844;SDS011;10583;49.084;8.646;2023-06-10T00:27:29;7.40;;;7.40;;
20844;SDS011;10583;49.084;8.646;2023-06-10T00:30:00;6.20;;;6.20;;
20844;SDS011;10583;49.084;8.646;2023-06-10T00:32:28;6.70;;;6.70;;
20844;SDS011;10583;49.084;8.646;2023-06-10T00:34:55;7.13;;;7.13;;
20844;SDS011;10583;49.084;8.646;2023-06-10T00:37:22;7.53;;;7.53;;
20844;SDS011;10583;49.084;8.646;2023-06-10T00:39:49;6.53;;;6.53;;
20844;SDS011;10583;49.084;8.646;2023-06-10T00:42:16;6.43;;;6.43;;
20844;SDS011;10583;49.084;8.646;2023-06-10T00:44:44;6.93;;;6.93;;
20844;SDS011;10583;49.084;8.646;2023-06-10T00:47:11;6.77;;;6.77;;
20844;SDS011;10583;49.084;8.646;2023-06-10T00:49:39;7.00;;;7.00;;
20844;SDS011;10583;49.084;8.646;2023-06-10T00:52:07;7.00;;;7.00;;
20844;SDS011;10583;49.084;8.646;2023-06-10T00:54:35;6.73;;;6.73;;
20844;SDS011;10583;49.084;8.646;2023-06-10T00:57:04;6.43;;;6.43;;
20844;SDS011;10583;49.084;8.646;2023-06-10T00:59:31;7.10;;;7.10;;
20844;SDS011;10583;49.084;8.646;2023-06-10T01:01:59;6.53;;;6.53;;
20844;SDS011;10583;49.084;8.646;2023-06-10T01:04:27;7.10;;;7.10;;
20844;SDS011;10583;49.084;8.646;2023-06-10T01:06:57;6.93;;;6.93;;
20844;SDS011;10583;49.084;8.646;2023-06-10T01:09:32;7.83;;;7.83;;
20844;SDS011;10583;49.084;8.646;2023-06-10T01:12:16;7.33;;;7.33;;
20844;SDS011;10583;49.084;8.646;2023-06-10T01:14:49;7.23;;;7.23;;
20844;SDS011;10583;49.084;8.646;2023-06-10T01:17:17;8.47;;;8.47;;
20844;SDS011;10583;49.084;8.646;2023-06-10T01:19:44;7.97;;;7.97;;
20844;SDS011;10583;49.084;8.646;2023-06-10T01:22:21;7.20;;;7.20;;
20844;SDS011;10583;49.084;8.646;2023-06-10T01:24:49;7.23;;;7.23;;
20844;SDS011;10583;49.084;8.646;2023-06-10T01:27:16;7.63;;;7.63;;
20844;SDS011;10583;49.084;8.646;2023-06-10T01:29:49;7.50;;;7.50;;
20844;SDS011;10583;49.084;8.646;2023-06-10T01:32:22;7.97;;;7.97;;
20844;SDS011;10583;49.084;8.646;2023-06-10T01:34:53;8.03;;;8.03;;
20844;SDS011;10583;49.084;8.646;2023-06-10T01:37:23;7.17;;;7.17;;
20844;SDS011;10583;49.084;8.646;2023-06-10T01:39:52;7.57;;;7.57;;
20844;SDS011;10583;49.084;8.646;2023-06-10T01:42:22;7.73;;;7.73;;
20844;SDS011;10583;49.084;8.646;2023-06-10T01:44:51;7.30;;;7.30;;
20844;SDS011;10583;49.084;8.646;2023-06-10T01:47:17;7.80;;;7.80;;
20844;SDS011;10583;49.084;8.646;2023-06-10T01:49:44;7.83;;;7.83;;
20844;SDS011;10583;49.084;8.646;2023-06-10T01:52:11;7.63;;;7.63;;
20844;SDS011;10583;49.084;8.646;2023-06-10T01:54:40;7.87;;;7.87;;
20844;SDS011;10583;49.084;8.646;2023-06-10T01:57:07;7.87;;;7.87;;
20844;SDS011;10583;49.084;8.646;2023-06-10T01:59:34;7.63;;;7.63;;
20844;SDS011;10583;49.084;8.646;2023-06-10T02:02:03;8.73;;;8.73;;
20844;SDS011;10583;49.084;8.646;2023-06-10T02:04:30;8.50;;;8.50;;
20844;SDS011;10583;49.084;8.646;2023-06-10T02:06:57;8.87;;;8.87;;
20844;SDS011;10583;49.084;8.646;2023-06-10T02:09:24;9.40;;;9.40;;
20844;SDS011;10583;49.084;8.646;2023-06-10T02:11:53;8.30;;;8.30;;
20844;SDS011;10583;49.084;8.646;2023-06-10T02:14:20;7.97;;;7.97;;
20844;SDS011;10583;49.084;8.646;2023-06-10T02:16:47;7.87;;;7.87;;
20844;SDS011;10583;49.084;8.646;2023-06-10T02:19:14;7.77;;;7.77;;
20844;SDS011;10583;49.084;8.646;2023-06-10T02:21:42;7.70;;;7.70;;
20844;SDS011;10583;49.084;8.646;2023-06-10T02:24:09;8.20;;;8.20;;
20844;SDS011;10583;49.084;8.646;2023-06-10T02:26:36;7.80;;;7.80;;
20844;SDS011;10583;49.084;8.646;2023-06-10T02:29:04;8.20;;;8.20;;
20844;SDS011;10583;49.084;8.646;2023-06-10T02:31:31;8.47;;;8.47;;
20844;SDS011;10583;49.084;8.646;2023-06-10T02:34:00;7.60;;;7.60;;
20844;SDS011;10583;49.084;8.646;2023-06-10T02:36:28;8.53;;;8.53;;
20844;SDS011;10583;49.084;8.646;2023-06-10T02:38:55;7.60;;;7.60;;
20844;SDS011;10583;49.084;8.646;2023-06-10T02:41:22;8.63;;;8.63;;
20844;SDS011;10583;49.084;8.646;2023-06-10T02:43:50;8.37;;;8.37;;
20844;SDS011;10583;49.084;8.646;2023-06-10T02:46:18;8.43;;;8.43;;
20844;SDS011;10583;49.084;8.646;2023-06-10T02:48:45;8.30;;;8.30;;
20844;SDS011;10583;49.084;8.646;2023-06-10T02:51:14;8.37;;;8.37;;
20844;SDS011;10583;49.084;8.646;2023-06-10T02:53:41;8.27;;;8.27;;
20844;SDS011;10583;49.084;8.646;2023-06-10T02:56:08;7.30;;;7.30;;
20844;SDS011;10583;49.084;8.646;2023-06-10T02:58:35;7.80;;;7.80;;
20844;SDS011;10583;49.084;8.646;2023-06-10T03:01:02;7.13;;;7.13;;
20844;SDS011;10583;49.084;8.646;2023-06-10T03:03:30;7.70;;;7.70;;
20844;SDS011;10583;49.084;8.646;2023-06-10T03:05:58;7.73;;;7.73;;
20844;SDS011;10583;49.084;8.646;2023-06-10T03:08:25;8.10;;;8.10;;
20844;SDS011;10583;49.084;8.646;2023-06-10T03:10:52;7.73;;;7.73;;
20844;SDS011;10583;49.084;8.646;2023-06-10T03:13:19;8.37;;;8.37;;
20844;SDS011;10583;49.084;8.646;2023-06-10T03:15:46;7.60;;;7.60;;
20844;SDS011;10583;49.084;8.646;2023-06-10T03:18:13;8.43;;;8.43;;
20844;SDS011;10583;49.084;8.646;2023-06-10T03:20:42;7.27;;;7.27;;
20844;SDS011;10583;49.084;8.646;2023-06-10T03:23:09;8.20;;;8.20;;
20844;SDS011;10583;49.084;8.646;2023-06-10T03:25:36;7.60;;;7.60;;
20844;SDS011;10583;49.084;8.646;2023-06-10T03:28:03;7.47;;;7.47;;
20844;SDS011;10583;49.084;8.646;2023-06-10T03:30:30;7.17;;;7.17;;
20844;SDS011;10583;49.084;8.646;2023-06-10T03:32:57;7.30;;;7.30;;
20844;SDS011;10583;49.084;8.646;2023-06-10T03:35:24;7.60;;;7.60;;
20844;SDS011;10583;49.084;8.646;2023-06-10T03:37:52;8.00;;;8.00;;
20844;SDS011;10583;49.084;8.646;2023-06-10T03:40:19;7.80;;;7.80;;
20844;SDS011;10583;49.084;8.646;2023-06-10T03:42:46;7.00;;;7.00;;
20844;SDS011;10583;49.084;8.646;2023-06-10T03:45:13;7.00;;;7.00;;
20844;SDS011;10583;49.084;8.646;2023-06-10T03:47:40;7.20;;;7.20;;
20844;SDS011;10583;49.084;8.646;2023-06-10T03:50:08;7.77;;;7.77;;
20844;SDS011;10583;49.084;8.646;2023-06-10T03:52:37;7.03;;;7.03;;
20844;SDS011;10583;49.084;8.646;2023-06-10T03:55:06;7.47;;;7.47;;
20844;SDS011;10583;49.084;8.646;2023-06-10T03:57:33;6.77;;;6.77;;
20844;SDS011;10583;49.084;8.646;2023-06-10T04:00:00;7.90;;;7.90;;
20844;SDS011;10583;49.084;8.646;2023-06-10T04:02:31;6.90;;;6.90;;
20844;SDS011;10583;49.084;8.646;2023-06-10T04:04:59;7.70;;;7.70;;
20844;SDS011;10583;49.084;8.646;2023-06-10T04:07:27;7.60;;;7.60;;
20844;SDS011;10583;49.084;8.646;2023-06-10T04:09:55;7.17;;;7.17;;
20844;SDS011;10583;49.084;8.646;2023-06-10T04:12:24;7.63;;;7.63;;
20844;SDS011;10583;49.084;8.646;2023-06-10T04:14:51;7.17;;;7.17;;
20844;SDS011;10583;49.084;8.646;2023-06-10T04:17:18;7.37;;;7.37;;
20844;SDS011;10583;49.084;8.646;2023-06-10T04:19:45;6.50;;;6.50;;
20844;SDS011;10583;49.084;8.646;2023-06-10T04:22:12;7.27;;;7.27;;
20844;SDS011;10583;49.084;8.646;2023-06-10T04:24:39;7.10;;;7.10;;
20844;SDS011;10583;49.084;8.646;2023-06-10T04:27:06;6.97;;;6.97;;
20844;SDS011;10583;49.084;8.646;2023-06-10T04:29:35;6.50;;;6.50;;
20844;SDS011;10583;49.084;8.646;2023-06-10T04:32:02;6.33;;;6.33;;
20844;SDS011;10583;49.084;8.646;2023-06-10T04:34:30;7.30;;;7.30;;
20844;SDS011;10583;49.084;8.646;2023-06-10T04:36:59;6.40;;;6.40;;
20844;SDS011;10583;49.084;8.646;2023-06-10T04:39:25;6.67;;;6.67;;
20844;SDS011;10583;49.084;8.646;2023-06-10T04:41:52;6.53;;;6.53;;
20844;SDS011;10583;49.084;8.646;2023-06-10T04:44:19;6.50;;;6.50;;
20844;SDS011;10583;49.084;8.646;2023-06-10T04:46:48;6.37;;;6.37;;
20844;SDS011;10583;49.084;8.646;2023-06-10T04:49:15;6.87;;;6.87;;
20844;SDS011;10583;49.084;8.646;2023-06-10T04:51:42;5.83;;;5.83;;
20844;SDS011;10583;49.084;8.646;2023-06-10T04:54:09;6.30;;;6.30;;
20844;SDS011;10583;49.084;8.646;2023-06-10T04:56:35;6.27;;;6.27;;
20844;SDS011;10583;49.084;8.646;2023-06-10T04:59:04;6.03;;;6.03;;
20844;SDS011;10583;49.084;8.646;2023-06-10T05:01:31;6.10;;;6.10;;
20844;SDS011;10583;49.084;8.646;2023-06-10T05:03:59;6.00;;;6.00;;
20844;SDS011;10583;49.084;8.646;2023-06-10T05:06:26;6.07;;;6.07;;
20844;SDS011;10583;49.084;8.646;2023-06-10T05:08:53;6.40;;;6.40;;
20844;SDS011;10583;49.084;8.646;2023-06-10T05:11:20;6.20;;;6.20;;
20844;SDS011;10583;49.084;8.646;2023-06-10T05:13:47;6.20;;;6.20;;
20844;SDS011;10583;49.084;8.646;2023-06-10T05:16:14;6.00;;;6.00;;
20844;SDS011;10583;49.084;8.646;2023-06-10T05:18:41;6.90;;;6.90;;
20844;SDS011;10583;49.084;8.646;2023-06-10T05:21:09;5.93;;;5.93;;
20844;SDS011;10583;49.084;8.646;2023-06-10T05:23:36;5.90;;;5.90;;
20844;SDS011;10583;49.084;8.646;2023-06-10T05:26:03;5.80;;;5.80;;
20844;SDS011;10583;49.084;8.646;2023-06-10T05:28:30;5.97;;;5.97;;
20844;SDS011;10583;49.084;8.646;2023-06-10T05:30:57;5.87;;;5.87;;
20844;SDS011;10583;49.084;8.646;2023-06-10T05:33:24;5.90;;;5.90;;
20844;SDS011;10583;49.084;8.646;2023-06-10T05:35:51;5.87;;;5.87;;
20844;SDS011;10583;49.084;8.646;2023-06-10T05:38:19;6.00;;;6.00;;
20844;SDS011;10583;49.084;8.646;2023-06-10T05:40:46;5.30;;;5.30;;
20844;SDS011;10583;49.084;8.646;2023-06-10T05:43:13;5.60;;;5.60;;
20844;SDS011;10583;49.084;8.646;2023-06-10T05:45:41;5.80;;;5.80;;
20844;SDS011;10583;49.084;8.646;2023-06-10T05:48:09;5.87;;;5.87;;
20844;SDS011;10583;49.084;8.646;2023-06-10T05:50:35;5.50;;;5.50;;
20844;SDS011;10583;49.084;8.646;2023-06-10T05:53:05;5.33;;;5.33;;
20844;SDS011;10583;49.084;8.646;2023-06-10T05:55:34;5.60;;;5.60;;
20844;SDS011;10583;49.084;8.646;2023-06-10T05:58:01;5.20;;;5.20;;
20844;SDS011;10583;49.084;8.646;2023-06-10T06:00:28;5.60;;;5.60;;
20844;SDS011;10583;49.084;8.646;2023-06-10T06:02:55;5.30;;;5.30;;
20844;SDS011;10583;49.084;8.646;2023-06-10T06:05:23;5.13;;;5.13;;
20844;SDS011;10583;49.084;8.646;2023-06-10T06:07:51;5.70;;;5.70;;
20844;SDS011;10583;49.084;8.646;2023-06-10T06:10:17;5.30;;;5.30;;
20844;SDS011;10583;49.084;8.646;2023-06-10T06:12:46;4.93;;;4.93;;
20844;SDS011;10583;49.084;8.646;2023-06-10T06:15:13;5.28;;;5.28;;
20844;SDS011;10583;49.084;8.646;2023-06-10T06:17:40;4.93;;;4.93;;
20844;SDS011;10583;49.084;8.646;2023-06-10T06:20:07;5.20;;;5.20;;
20844;SDS011;10583;49.084;8.646;2023-06-10T06:22:35;5.38;;;5.38;;
20844;SDS011;10583;49.084;8.646;2023-06-10T06:25:02;5.80;;;5.80;;
20844;SDS011;10583;49.084;8.646;2023-06-10T06:27:30;5.57;;;5.57;;
20844;SDS011;10583;49.084;8.646;2023-06-10T06:29:59;4.95;;;4.95;;
20844;SDS011;10583;49.084;8.646;2023-06-10T06:32:26;4.80;;;4.80;;
20844;SDS011;10583;49.084;8.646;2023-06-10T06:34:53;4.90;;;4.90;;
20844;SDS011;10583;49.084;8.646;2023-06-10T06:37:21;5.18;;;5.18;;
20844;SDS011;10583;49.084;8.646;2023-06-10T06:39:48;5.25;;;5.25;;
20844;SDS011;10583;49.084;8.646;2023-06-10T06:42:16;4.70;;;4.70;;
20844;SDS011;10583;49.084;8.646;2023-06-10T06:44:43;5.20;;;5.20;;
20844;SDS011;10583;49.084;8.646;2023-06-10T06:47:12;4.90;;;4.90;;
20844;SDS011;10583;49.084;8.646;2023-06-10T06:49:39;4.75;;;4.75;;
20844;SDS011;10583;49.084;8.646;2023-06-10T06:52:06;5.00;;;5.00;;
20844;SDS011;10583;49.084;8.646;2023-06-10T06:54:34;4.28;;;4.28;;
20844;SDS011;10583;49.084;8.646;2023-06-10T06:57:01;4.75;;;4.75;;
20844;SDS011;10583;49.084;8.646;2023-06-10T06:59:28;4.88;;;4.88;;
20844;SDS011;10583;49.084;8.646;2023-06-10T07:01:55;4.72;;;4.72;;
20844;SDS011;10583;49.084;8.646;2023-06-10T07:04:23;4.65;;;4.65;;
20844;SDS011;10583;49.084;8.646;2023-06-10T07:06:50;4.20;;;4.20;;
20844;SDS011;10583;49.084;8.646;2023-06-10T07:09:17;4.53;;;4.53;;
20844;SDS011;10583;49.084;8.646;2023-06-10T07:11:44;4.38;;;4.38;;
20844;SDS011;10583;49.084;8.646;2023-06-10T07:14:11;4.50;;;4.50;;
20844;SDS011;10583;49.084;8.646;2023-06-10T07:16:38;4.18;;;4.18;;
20844;SDS011;10583;49.084;8.646;2023-06-10T07:30:01;4.65;;;4.65;;
20844;SDS011;10583;49.084;8.646;2023-06-10T07:32:27;5.00;;;5.00;;
20844;SDS011;10583;49.084;8.646;2023-06-10T07:34:54;4.43;;;4.43;;
20844;SDS011;10583;49.084;8.646;2023-06-10T07:37:21;4.43;;;4.43;;
20844;SDS011;10583;49.084;8.646;2023-06-10T07:39:47;4.10;;;4.10;;
20844;SDS011;10583;49.084;8.646;2023-06-10T07:42:14;4.45;;;4.45;;
20844;SDS011;10583;49.084;8.646;2023-06-10T07:44:41;4.78;;;4.78;;
20844;SDS011;10583;49.084;8.646;2023-06-10T07:47:10;4.70;;;4.70;;
20844;SDS011;10583;49.084;8.646;2023-06-10T07:49:36;4.72;;;4.72;;
20844;SDS011;10583;49.084;8.646;2023-06-10T07:52:03;4.78;;;4.78;;
20844;SDS011;10583;49.084;8.646;2023-06-10T07:54:30;4.63;;;4.63;;
20844;SDS011;10583;49.084;8.646;2023-06-10T07:56:57;5.00;;;5.00;;
20844;SDS011;10583;49.084;8.646;2023-06-10T07:59:24;4.32;;;4.32;;
20844;SDS011;10583;49.084;8.646;2023-06-10T08:01:51;4.53;;;4.53;;
20844;SDS011;10583;49.084;8.646;2023-06-10T08:04:20;4.85;;;4.85;;
20844;SDS011;10583;49.084;8.646;2023-06-10T08:06:46;4.72;;;4.72;;
20844;SDS011;10583;49.084;8.646;2023-06-10T08:09:13;4.32;;;4.32;;
20844;SDS011;10583;49.084;8.646;2023-06-10T08:11:40;4.60;;;4.60;;
20844;SDS011;10583;49.084;8.646;2023-06-10T08:14:06;4.70;;;4.70;;
20844;SDS011;10583;49.084;8.646;2023-06-10T08:16:33;4.72;;;4.72;;
20844;SDS011;10583;49.084;8.646;2023-06-10T08:19:00;4.75;;;4.75;;
20844;SDS011;10583;49.084;8.646;2023-06-10T08:21:28;4.32;;;4.32;;
20844;SDS011;10583;49.084;8.646;2023-06-10T08:23:54;4.22;;;4.22;;
20844;SDS011;10583;49.084;8.646;2023-06-10T08:26:21;4.30;;;4.30;;
20844;SDS011;10583;49.084;8.646;2023-06-10T08:28:48;4.28;;;4.28;;
20844;SDS011;10583;49.084;8.646;2023-06-10T08:31:14;4.57;;;4.57;;
20844;SDS011;10583;49.084;8.646;2023-06-10T08:33:41;4.40;;;4.40;;
20844;SDS011;10583;49.084;8.646;2023-06-10T08:36:08;4.78;;;4.78;;
20844;SDS011;10583;49.084;8.646;2023-06-10T08:38:36;4.82;;;4.82;;
20844;SDS011;10583;49.084;8.646;2023-06-10T08:41:04;4.47;;;4.47;;
20844;SDS011;10583;49.084;8.646;2023-06-10T08:43:33;4.72;;;4.72;;
20844;SDS011;10583;49.084;8.646;2023-06-10T08:46:03;4.45;;;4.45;;
20844;SDS011;10583;49.084;8.646;2023-06-10T08:48:30;4.40;;;4.40;;
20844;SDS011;10583;49.084;8.646;2023-06-10T08:50:57;4.32;;;4.32;;
20844;SDS011;10583;49.084;8.646;2023-06-10T08:53:24;4.68;;;4.68;;
20844;SDS011;10583;49.084;8.646;2023-06-10T08:55:54;4.40;;;4.40;;
20844;SDS011;10583;49.084;8.646;2023-06-10T08:58:24;4.57;;;4.57;;
20844;SDS011;10583;49.084;8.646;2023-06-10T09:00:51;4.45;;;4.45;;
20844;SDS011;10583;49.084;8.646;2023-06-10T09:03:18;4.50;;;4.50;;
20844;SDS011;10583;49.084;8.646;2023-06-10T09:05:45;4.72;;;4.72;;
20844;SDS011;10583;49.084;8.646;2023-06-10T09:08:12;4.60;;;4.60;;
20844;SDS011;10583;49.084;8.646;2023-06-10T09:10:41;4.90;;;4.90;;
20844;SDS011;10583;49.084;8.646;2023-06-10T09:13:09;5.07;;;5.07;;
20844;SDS011;10583;49.084;8.646;2023-06-10T09:15:36;4.60;;;4.60;;
20844;SDS011;10583;49.084;8.646;2023-06-10T09:18:05;5.22;;;5.22;;
20844;SDS011;10583;49.084;8.646;2023-06-10T09:20:31;4.85;;;4.85;;
20844;SDS011;10583;49.084;8.646;2023-06-10T09:22:59;4.85;;;4.85;;
20844;SDS011;10583;49.084;8.646;2023-06-10T09:25:34;4.68;;;4.68;;
20844;SDS011;10583;49.084;8.646;2023-06-10T09:28:02;4.80;;;4.80;;
20844;SDS011;10583;49.084;8.646;2023-06-10T09:30:31;5.07;;;5.07;;
20844;SDS011;10583;49.084;8.646;2023-06-10T09:33:00;5.15;;;5.15;;
20844;SDS011;10583;49.084;8.646;2023-06-10T09:35:28;5.00;;;5.00;;
20844;SDS011;10583;49.084;8.646;2023-06-10T09:37:56;4.68;;;4.68;;
20844;SDS011;10583;49.084;8.646;2023-06-10T09:40:24;4.53;;;4.53;;
20844;SDS011;10583;49.084;8.646;2023-06-10T09:42:53;4.80;;;4.80;;
20844;SDS011;10583;49.084;8.646;2023-06-10T09:45:21;4.60;;;4.60;;
20844;SDS011;10583;49.084;8.646;2023-06-10T09:47:52;5.30;;;5.20;;
20844;SDS011;10583;49.084;8.646;2023-06-10T09:50:20;4.53;;;4.53;;
20844;SDS011;10583;49.084;8.646;2023-06-10T09:52:47;4.65;;;4.65;;
20844;SDS011;10583;49.084;8.646;2023-06-10T09:55:14;5.22;;;5.22;;
20844;SDS011;10583;49.084;8.646;2023-06-10T09:57:41;4.20;;;4.20;;
20844;SDS011;10583;49.084;8.646;2023-06-10T10:00:11;4.63;;;4.63;;
20844;SDS011;10583;49.084;8.646;2023-06-10T10:02:43;4.90;;;4.90;;
20844;SDS011;10583;49.084;8.646;2023-06-10T10:05:14;4.85;;;4.85;;
20844;SDS011;10583;49.084;8.646;2023-06-10T10:07:41;4.75;;;4.75;;
20844;SDS011;10583;49.084;8.646;2023-06-10T10:10:09;4.53;;;4.53;;
20844;SDS011;10583;49.084;8.646;2023-06-10T10:12:36;4.70;;;4.70;;
20844;SDS011;10583;49.084;8.646;2023-06-10T10:15:05;4.68;;;4.68;;
20844;SDS011;10583;49.084;8.646;2023-06-10T10:17:34;4.28;;;4.28;;
20844;SDS011;10583;49.084;8.646;2023-06-10T10:20:04;4.50;;;4.50;;
20844;SDS011;10583;49.084;8.646;2023-06-10T10:22:35;4.28;;;4.28;;
20844;SDS011;10583;49.084;8.646;2023-06-10T10:25:05;4.38;;;4.38;;
20844;SDS011;10583;49.084;8.646;2023-06-10T10:27:36;4.47;;;4.47;;
20844;SDS011;10583;49.084;8.646;2023-06-10T10:30:09;4.82;;;4.82;;
20844;SDS011;10583;49.084;8.646;2023-06-10T10:32:40;4.57;;;4.57;;
20844;SDS011;10583;49.084;8.646;2023-06-10T10:35:12;4.57;;;4.57;;
20844;SDS011;10583;49.084;8.646;2023-06-10T10:37:43;3.90;;;3.90;;
20844;SDS011;10583;49.084;8.646;2023-06-10T10:40:11;4.20;;;4.20;;
20844;SDS011;10583;49.084;8.646;2023-06-10T10:42:39;4.47;;;4.47;;
20844;SDS011;10583;49.084;8.646;2023-06-10T10:45:07;4.07;;;4.07;;
20844;SDS011;10583;49.084;8.646;2023-06-10T10:47:34;4.75;;;4.75;;
20844;SDS011;10583;49.084;8.646;2023-06-10T10:50:04;3.78;;;3.78;;
20844;SDS011;10583;49.084;8.646;2023-06-10T10:52:51;4.40;;;4.40;;
20844;SDS011;10583;49.084;8.646;2023-06-10T10:55:19;4.35;;;4.35;;
20844;SDS011;10583;49.084;8.646;2023-06-10T10:57:53;3.88;;;3.88;;
20844;SDS011;10583;49.084;8.646;2023-06-10T11:00:24;4.20;;;4.20;;
20844;SDS011;10583;49.084;8.646;2023-06-10T11:02:57;4.20;;;4.20;;
20844;SDS011;10583;49.084;8.646;2023-06-10T11:05:32;4.13;;;4.13;;
20844;SDS011;10583;49.084;8.646;2023-06-10T11:08:04;3.95;;;3.95;;
20844;SDS011;10583;49.084;8.646;2023-06-10T11:10:31;3.65;;;3.65;;
20844;SDS011;10583;49.084;8.646;2023-06-10T11:12:59;3.85;;;3.85;;
20844;SDS011;10583;49.084;8.646;2023-06-10T11:15:26;3.90;;;3.90;;
20844;SDS011;10583;49.084;8.646;2023-06-10T11:18:07;3.65;;;3.65;;
20844;SDS011;10583;49.084;8.646;2023-06-10T11:20:44;3.80;;;3.80;;
20844;SDS011;10583;49.084;8.646;2023-06-10T11:23:16;4.20;;;4.20;;
20844;SDS011;10583;49.084;8.646;2023-06-10T11:26:20;3.47;;;3.47;;
20844;SDS011;10583;49.084;8.646;2023-06-10T11:29:08;3.70;;;3.70;;
20844;SDS011;10583;49.084;8.646;2023-06-10T11:31:40;3.78;;;3.78;;
20844;SDS011;10583;49.084;8.646;2023-06-10T11:34:08;4.07;;;4.07;;
20844;SDS011;10583;49.084;8.646;2023-06-10T11:36:36;3.88;;;3.88;;
20844;SDS011;10583;49.084;8.646;2023-06-10T11:39:08;3.75;;;3.75;;
20844;SDS011;10583;49.084;8.646;2023-06-10T11:41:36;3.50;;;3.50;;
20844;SDS011;10583;49.084;8.646;2023-06-10T11:44:07;3.70;;;3.70;;
20844;SDS011;10583;49.084;8.646;2023-06-10T11:46:35;3.90;;;3.90;;
20844;SDS011;10583;49.084;8.646;2023-06-10T11:49:03;3.90;;;3.90;;
20844;SDS011;10583;49.084;8.646;2023-06-10T11:51:32;3.67;;;3.67;;
20844;SDS011;10583;49.084;8.646;2023-06-10T11:54:00;3.60;;;3.60;;
20844;SDS011;10583;49.084;8.646;2023-06-10T11:56:29;3.95;;;3.95;;
20844;SDS011;10583;49.084;8.646;2023-06-10T11:58:57;4.05;;;4.05;;
20844;SDS011;10583;49.084;8.646;2023-06-10T12:01:29;3.83;;;3.83;;
20844;SDS011;10583;49.084;8.646;2023-06-10T12:03:57;3.60;;;3.60;;
20844;SDS011;10583;49.084;8.646;2023-06-10T12:06:25;3.38;;;3.38;;
20844;SDS011;10583;49.084;8.646;2023-06-10T12:08:53;3.30;;;3.30;;
20844;SDS011;10583;49.084;8.646;2023-06-10T12:11:19;3.35;;;3.35;;
20844;SDS011;10583;49.084;8.646;2023-06-10T12:13:48;3.45;;;3.45;;
20844;SDS011;10583;49.084;8.646;2023-06-10T12:16:16;3.40;;;3.40;;
20844;SDS011;10583;49.084;8.646;2023-06-10T12:18:44;3.38;;;3.38;;
20844;SDS011;10583;49.084;8.646;2023-06-10T12:21:16;3.40;;;3.40;;
20844;SDS011;10583;49.084;8.646;2023-06-10T12:26:36;3.53;;;3.53;;
20844;SDS011;10583;49.084;8.646;2023-06-10T12:29:19;3.70;;;3.70;;
20844;SDS011;10583;49.084;8.646;2023-06-10T12:32:00;3.80;;;3.80;;
20844;SDS011;10583;49.084;8.646;2023-06-10T12:34:34;3.60;;;3.60;;
20844;SDS011;10583;49.084;8.646;2023-06-10T12:37:02;4.45;;;4.45;;
20844;SDS011;10583;49.084;8.646;2023-06-10T12:39:31;3.63;;;3.63;;
20844;SDS011;10583;49.084;8.646;2023-06-10T12:41:58;4.00;;;4.00;;
20844;SDS011;10583;49.084;8.646;2023-06-10T12:44:33;4.03;;;4.03;;
20844;SDS011;10583;49.084;8.646;2023-06-10T12:47:01;4.05;;;4.05;;
20844;SDS011;10583;49.084;8.646;2023-06-10T12:49:33;3.40;;;3.40;;
20844;SDS011;10583;49.084;8.646;2023-06-10T12:52:01;3.45;;;3.45;;
20844;SDS011;10583;49.084;8.646;2023-06-10T12:54:28;3.60;;;3.60;;
20844;SDS011;10583;49.084;8.646;2023-06-10T12:56:54;4.45;;;4.45;;
20844;SDS011;10583;49.084;8.646;2023-06-10T12:59:21;3.80;;;3.80;;
20844;SDS011;10583;49.084;8.646;2023-06-10T13:01:51;3.78;;;3.78;;
20844;SDS011;10583;49.084;8.646;2023-06-10T13:04:18;3.67;;;3.67;;
20844;SDS011;10583;49.084;8.646;2023-06-10T13:06:45;3.97;;;3.97;;
20844;SDS011;10583;49.084;8.646;2023-06-10T13:09:12;3.28;;;3.28;;
20844;SDS011;10583;49.084;8.646;2023-06-10T13:11:39;3.53;;;3.53;;
20844;SDS011;10583;49.084;8.646;2023-06-10T13:14:06;4.00;;;4.00;;
20844;SDS011;10583;49.084;8.646;2023-06-10T13:16:33;4.22;;;4.22;;
20844;SDS011;10583;49.084;8.646;2023-06-10T13:19:04;4.25;;;4.25;;
20844;SDS011;10583;49.084;8.646;2023-06-10T13:21:31;3.90;;;3.90;;
20844;SDS011;10583;49.084;8.646;2023-06-10T13:23:58;4.00;;;4.00;;
20844;SDS011;10583;49.084;8.646;2023-06-10T13:26:25;3.92;;;3.92;;
20844;SDS011;10583;49.084;8.646;2023-06-10T13:28:52;3.90;;;3.90;;
20844;SDS011;10583;49.084;8.646;2023-06-10T13:31:19;4.07;;;4.07;;
20844;SDS011;10583;49.084;8.646;2023-06-10T13:33:46;3.83;;;3.83;;
20844;SDS011;10583;49.084;8.646;2023-06-10T13:36:14;3.97;;;3.97;;
20844;SDS011;10583;49.084;8.646;2023-06-10T13:38:41;3.47;;;3.47;;
20844;SDS011;10583;49.084;8.646;2023-06-10T13:41:07;3.67;;;3.67;;
20844;SDS011;10583;49.084;8.646;2023-06-10T13:43:35;3.47;;;3.47;;
20844;SDS011;10583;49.084;8.646;2023-06-10T13:46:01;3.45;;;3.45;;
20844;SDS011;10583;49.084;8.646;2023-06-10T13:48:28;3.42;;;3.42;;
20844;SDS011;10583;49.084;8.646;2023-06-10T13:50:55;3.50;;;3.50;;
20844;SDS011;10583;49.084;8.646;2023-06-10T13:53:23;3.95;;;3.95;;
20844;SDS011;10583;49.084;8.646;2023-06-10T13:55:50;2.97;;;2.97;;
20844;SDS011;10583;49.084;8.646;2023-06-10T13:58:16;3.10;;;3.10;;
20844;SDS011;10583;49.084;8.646;2023-06-10T14:00:43;3.28;;;3.28;;
20844;SDS011;10583;49.084;8.646;2023-06-10T14:03:10;3.35;;;3.35;;
20844;SDS011;10583;49.084;8.646;2023-06-10T14:05:37;3.40;;;3.40;;
20844;SDS011;10583;49.084;8.646;2023-06-10T14:08:05;3.40;;;3.40;;
20844;SDS011;10583;49.084;8.646;2023-06-10T14:10:33;2.90;;;2.90;;
20844;SDS011;10583;49.084;8.646;2023-06-10T14:12:59;3.20;;;3.20;;
20844;SDS011;10583;49.084;8.646;2023-06-10T14:15:26;3.42;;;3.42;;
20844;SDS011;10583;49.084;8.646;2023-06-10T14:17:53;3.10;;;3.10;;
20844;SDS011;10583;49.084;8.646;2023-06-10T14:20:20;3.17;;;3.17;;
20844;SDS011;10583;49.084;8.646;2023-06-10T14:22:46;2.67;;;2.67;;
20844;SDS011;10583;49.084;8.646;2023-06-10T14:25:13;3.30;;;3.30;;
20844;SDS011;10583;49.084;8.646;2023-06-10T14:27:41;2.95;;;2.95;;
20844;SDS011;10583;49.084;8.646;2023-06-10T14:30:08;3.20;;;3.20;;
20844;SDS011;10583;49.084;8.646;2023-06-10T14:32:35;3.28;;;3.28;;
20844;SDS011;10583;49.084;8.646;2023-06-10T14:35:02;3.30;;;3.30;;
20844;SDS011;10583;49.084;8.646;2023-06-10T14:37:29;3.40;;;3.40;;
20844;SDS011;10583;49.084;8.646;2023-06-10T14:39:55;3.45;;;3.45;;
20844;SDS011;10583;49.084;8.646;2023-06-10T14:42:22;3.47;;;3.47;;
20844;SDS011;10583;49.084;8.646;2023-06-10T14:44:50;3.22;;;3.22;;
20844;SDS011;10583;49.084;8.646;2023-06-10T14:47:17;3.40;;;3.40;;
20844;SDS011;10583;49.084;8.646;2023-06-10T14:49:44;3.20;;;3.20;;
20844;SDS011;10583;49.084;8.646;2023-06-10T14:52:10;3.25;;;3.25;;
20844;SDS011;10583;49.084;8.646;2023-06-10T14:54:37;3.33;;;3.33;;
20844;SDS011;10583;49.084;8.646;2023-06-10T14:57:04;3.35;;;3.35;;
20844;SDS011;10583;49.084;8.646;2023-06-10T14:59:32;3.33;;;3.33;;
20844;SDS011;10583;49.084;8.646;2023-06-10T15:02:00;3.20;;;3.20;;
20844;SDS011;10583;49.084;8.646;2023-06-10T15:04:27;3.05;;;3.05;;
20844;SDS011;10583;49.084;8.646;2023-06-10T15:06:53;3.00;;;3.00;;